Latest Weather Observations for Horsley Park
Issued at 8:11 pm EST Wednesday 6 May 2026 (issued every 10 minutes, with the page automatically refreshed every 10 minutes)
| Station Details | ID: 067119 | Name: HORSLEY PARK EQUESTRIAN CENTRE AWS | Lat: -33.85 | Lon: 150.86 | Height: 100.0 m |
| Date/Time EST |
Temp °C |
App Temp °C |
Dew Point °C |
Rel Hum % |
Delta-T °C |
Wind | Press QNH hPa |
Press MSL hPa |
Rain since 9am mm |
||||
|---|---|---|---|---|---|---|---|---|---|---|---|---|---|
| Dir | Spd km/h |
Gust km/h |
Spd kts |
Gust kts |
|||||||||
| 06/08:00pm | 14.1 | 14.9 | 12.5 | 90 | 0.9 | CALM | 0 | 0 | 0 | 0 | - | - | 0.0 |
| 06/07:30pm | 14.7 | 15.4 | 12.2 | 85 | 1.4 | CALM | 0 | 0 | 0 | 0 | - | - | 0.0 |
| 06/07:00pm | 16.2 | 17.1 | 12.9 | 81 | 1.8 | CALM | 0 | 2 | 0 | 1 | - | - | 0.0 |
| 06/06:30pm | 16.4 | 16.2 | 11.8 | 74 | 2.5 | ENE | 4 | 6 | 2 | 3 | - | - | 0.0 |
| 06/06:00pm | 17.3 | 17.1 | 11.8 | 70 | 3.0 | ENE | 4 | 6 | 2 | 3 | - | - | 0.0 |
| 06/05:30pm | 17.0 | 16.7 | 11.3 | 69 | 3.1 | E | 4 | 6 | 2 | 3 | - | - | 0.0 |
| 06/05:00pm | 19.2 | 19.2 | 9.9 | 55 | 5.0 | CALM | 0 | 2 | 0 | 1 | - | - | 0.0 |
| 06/04:30pm | 20.9 | 20.4 | 9.5 | 48 | 6.1 | N | 2 | 6 | 1 | 3 | - | - | 0.0 |
| 06/04:00pm | 21.2 | 20.1 | 9.8 | 48 | 6.2 | NNE | 6 | 13 | 3 | 7 | - | - | 0.0 |
| 06/03:30pm | 21.5 | 20.1 | 9.4 | 46 | 6.5 | NNE | 7 | 15 | 4 | 8 | - | - | 0.0 |
| 06/03:00pm | 21.9 | 20.8 | 10.1 | 47 | 6.4 | N | 6 | 11 | 3 | 6 | - | - | 0.0 |
| 06/02:30pm | 22.1 | 21.2 | 10.6 | 48 | 6.3 | NNE | 6 | 9 | 3 | 5 | - | - | 0.0 |
| 06/02:00pm | 21.0 | 21.4 | 11.1 | 53 | 5.5 | CALM | 0 | 2 | 0 | 1 | - | - | 0.0 |
| 06/01:30pm | 20.4 | 20.1 | 10.2 | 52 | 5.5 | E | 2 | 6 | 1 | 3 | - | - | 0.0 |
| 06/01:00pm | 22.1 | 21.3 | 11.2 | 50 | 6.1 | NNW | 6 | 9 | 3 | 5 | - | - | 0.0 |
| 06/12:30pm | 21.3 | 20.4 | 10.8 | 51 | 5.8 | NW | 6 | 9 | 3 | 5 | - | - | 0.0 |
| 06/12:00pm | 20.8 | 20.6 | 10.3 | 51 | 5.7 | W | 2 | 4 | 1 | 2 | - | - | 0.0 |
| 06/11:30am | 20.4 | 19.5 | 10.5 | 53 | 5.4 | W | 6 | 9 | 3 | 5 | - | - | 0.0 |
| 06/11:00am | 18.8 | 17.9 | 9.3 | 54 | 5.0 | NW | 4 | 7 | 2 | 4 | - | - | 0.0 |
| 06/10:30am | 18.2 | 17.0 | 9.5 | 57 | 4.6 | WNW | 6 | 7 | 3 | 4 | - | - | 0.0 |
| 06/10:00am | 17.4 | 16.3 | 9.8 | 61 | 4.0 | WNW | 6 | 7 | 3 | 4 | - | - | 0.0 |
| 06/09:30am | 16.1 | 14.8 | 9.3 | 64 | 3.5 | WNW | 6 | 9 | 3 | 5 | - | - | 0.0 |
| 06/09:00am | 14.7 | 13.0 | 8.2 | 65 | 3.3 | WSW | 7 | 11 | 4 | 6 | - | - | 0.0 |
| 06/08:30am | 13.5 | 12.0 | 8.4 | 71 | 2.6 | WSW | 6 | 11 | 3 | 6 | - | - | 0.0 |
| 06/08:00am | 12.7 | 11.5 | 8.0 | 73 | 2.3 | W | 4 | 11 | 2 | 6 | - | - | 0.0 |
| 06/07:30am | 11.6 | 10.3 | 7.7 | 77 | 1.9 | WSW | 4 | 9 | 2 | 5 | - | - | 0.0 |
| 06/07:00am | 10.4 | 8.7 | 7.6 | 83 | 1.4 | W | 6 | 7 | 3 | 4 | - | - | 0.0 |
| 06/06:30am | 9.1 | 7.8 | 7.5 | 90 | 0.8 | WNW | 4 | 7 | 2 | 4 | - | - | 0.0 |
| 06/06:00am | 8.7 | 7.9 | 6.7 | 87 | 0.9 | CALM | 0 | 4 | 0 | 2 | - | - | 0.0 |
| 06/05:30am | 10.5 | 8.8 | 7.6 | 82 | 1.4 | WSW | 6 | 9 | 3 | 5 | - | - | 0.0 |
| 06/05:00am | 9.2 | 8.4 | 6.6 | 84 | 1.2 | CALM | 0 | 0 | 0 | 0 | - | - | 0.0 |
| 06/04:30am | 10.0 | 8.9 | 6.7 | 80 | 1.6 | NW | 2 | 2 | 1 | 1 | - | - | 0.0 |
| 06/04:00am | 11.0 | 9.4 | 6.4 | 73 | 2.2 | WNW | 4 | 7 | 2 | 4 | - | - | 0.0 |
| 06/03:30am | 12.4 | 9.6 | 6.9 | 69 | 2.7 | SW | 11 | 17 | 6 | 9 | - | - | 0.0 |
| 06/03:00am | 12.5 | 9.2 | 6.5 | 67 | 2.9 | SW | 13 | 19 | 7 | 10 | - | - | 0.0 |
| 06/02:30am | 12.7 | 9.5 | 6.7 | 67 | 2.9 | SW | 13 | 17 | 7 | 9 | - | - | 0.0 |
| 06/02:00am | 12.6 | 9.3 | 6.6 | 67 | 2.9 | SW | 13 | 17 | 7 | 9 | - | - | 0.0 |
| 06/01:30am | 13.0 | 9.7 | 6.6 | 65 | 3.1 | SW | 13 | 20 | 7 | 11 | - | - | 0.0 |
| 06/01:00am | 13.1 | 9.9 | 6.9 | 66 | 3.0 | SW | 13 | 17 | 7 | 9 | - | - | 0.0 |
| 06/12:30am | 13.4 | 10.5 | 6.7 | 64 | 3.2 | SW | 11 | 17 | 6 | 9 | - | - | 0.0 |
| 06/12:00am | 13.9 | 10.7 | 6.7 | 62 | 3.5 | SW | 13 | 19 | 7 | 10 | - | - | 0.0 |
| Date/Time EST |
Temp °C |
App Temp °C |
Dew Point °C |
Rel Hum % |
Delta-T °C |
Wind | Press QNH hPa |
Press MSL hPa |
Rain since 9am mm |
||||
|---|---|---|---|---|---|---|---|---|---|---|---|---|---|
| Dir | Spd km/h |
Gust km/h |
Spd kts |
Gust kts |
|||||||||
| 05/11:30pm | 13.9 | 11.1 | 7.0 | 63 | 3.4 | SW | 11 | 17 | 6 | 9 | - | - | 0.0 |
| 05/11:00pm | 13.9 | 11.0 | 6.7 | 62 | 3.5 | SW | 11 | 15 | 6 | 8 | - | - | 0.0 |
| 05/10:30pm | 15.0 | 12.4 | 6.3 | 56 | 4.2 | SW | 9 | 13 | 5 | 7 | - | - | 0.0 |
| 05/10:00pm | 15.5 | 13.0 | 6.5 | 55 | 4.4 | SW | 9 | 15 | 5 | 8 | - | - | 0.0 |
| 05/09:30pm | 15.9 | 13.1 | 6.9 | 55 | 4.5 | SSW | 11 | 15 | 6 | 8 | - | - | 0.0 |
| 05/09:00pm | 15.6 | 13.2 | 7.1 | 57 | 4.2 | SSW | 9 | 15 | 5 | 8 | - | - | 0.0 |
| 05/08:30pm | 14.5 | 12.7 | 8.0 | 65 | 3.3 | SSW | 7 | 11 | 4 | 6 | - | - | 0.0 |
| 05/08:00pm | 15.0 | 13.6 | 8.9 | 67 | 3.1 | S | 6 | 9 | 3 | 5 | - | - | 0.0 |
| 05/07:30pm | 14.4 | 12.8 | 8.8 | 69 | 2.8 | SSE | 7 | 9 | 4 | 5 | - | - | 0.0 |
| 05/07:00pm | 14.6 | 13.0 | 8.1 | 65 | 3.3 | SSE | 6 | 7 | 3 | 4 | - | - | 0.0 |
| 05/06:30pm | 16.7 | 14.9 | 7.9 | 56 | 4.5 | SE | 7 | 11 | 4 | 6 | - | - | 0.0 |
| 05/06:00pm | 16.1 | 14.0 | 6.0 | 51 | 4.9 | SSW | 6 | 7 | 3 | 4 | - | - | 0.0 |
| 05/05:30pm | 16.0 | 14.7 | 7.5 | 57 | 4.3 | SSW | 4 | 7 | 2 | 4 | - | - | 0.0 |
| 05/05:00pm | 19.0 | 17.6 | 5.5 | 41 | 6.6 | S | 2 | 6 | 1 | 3 | - | - | 0.0 |
| 05/04:30pm | 20.7 | 17.9 | 5.1 | 36 | 7.7 | SW | 9 | 15 | 5 | 8 | - | - | 0.0 |
| 05/04:00pm | 21.6 | 19.2 | 5.1 | 34 | 8.2 | SW | 7 | 15 | 4 | 8 | - | - | 0.0 |
| 05/03:30pm | 22.1 | 18.9 | 5.1 | 33 | 8.5 | SW | 11 | 17 | 6 | 9 | - | - | 0.0 |
| 05/03:00pm | 22.4 | 20.0 | 5.4 | 33 | 8.5 | WSW | 7 | 13 | 4 | 7 | - | - | 0.0 |
| 05/02:30pm | 22.2 | 20.1 | 6.8 | 37 | 7.9 | WNW | 7 | 15 | 4 | 8 | - | - | 0.0 |
| 05/02:00pm | 21.9 | 19.6 | 7.3 | 39 | 7.6 | WSW | 9 | 15 | 5 | 8 | - | - | 0.0 |
| 05/01:30pm | 21.8 | 19.9 | 7.6 | 40 | 7.4 | WNW | 7 | 15 | 4 | 8 | - | - | 0.0 |
| 05/01:00pm | 21.5 | 19.4 | 8.4 | 43 | 6.9 | W | 9 | 19 | 5 | 10 | - | - | 0.0 |
| 05/12:30pm | 20.9 | 18.3 | 7.9 | 43 | 6.8 | W | 11 | 20 | 6 | 11 | - | - | 0.0 |
| 05/12:00pm | 20.3 | 18.2 | 8.3 | 46 | 6.3 | W | 9 | 19 | 5 | 10 | - | - | 0.0 |
| 05/11:30am | 20.2 | 18.0 | 7.9 | 45 | 6.4 | W | 9 | 19 | 5 | 10 | - | - | 0.0 |
| 05/11:00am | 19.7 | 16.9 | 8.7 | 49 | 5.8 | W | 13 | 24 | 7 | 13 | - | - | 0.0 |
| 05/10:30am | 18.9 | 16.5 | 8.6 | 51 | 5.4 | W | 11 | 22 | 6 | 12 | - | - | 0.0 |
| 05/10:00am | 17.9 | 14.9 | 9.3 | 57 | 4.5 | WNW | 15 | 22 | 8 | 12 | - | - | 0.0 |
| 05/09:30am | 17.1 | 14.5 | 9.5 | 61 | 4.0 | WNW | 13 | 28 | 7 | 15 | - | - | 0.0 |
| 05/09:00am | 16.4 | 14.3 | 9.6 | 64 | 3.6 | NW | 11 | 17 | 6 | 9 | - | - | 6.6 |
| 05/08:30am | 15.5 | 14.9 | 10.3 | 71 | 2.7 | NW | 4 | 7 | 2 | 4 | - | - | 6.6 |
| 05/08:00am | 13.6 | 14.6 | 13.3 | 98 | 0.2 | CALM | 0 | 0 | 0 | 0 | - | - | 6.6 |
| 05/07:30am | 11.0 | 11.3 | 10.8 | 99 | 0.1 | CALM | 0 | 2 | 0 | 1 | - | - | 6.6 |
| 05/07:00am | 10.4 | 10.4 | 9.9 | 97 | 0.3 | CALM | 0 | 0 | 0 | 0 | - | - | 6.6 |
| 05/06:30am | 9.8 | 9.6 | 9.0 | 95 | 0.4 | CALM | 0 | 0 | 0 | 0 | - | - | 6.6 |
| 05/06:00am | 10.1 | 9.9 | 9.0 | 93 | 0.5 | CALM | 0 | 0 | 0 | 0 | - | - | 6.6 |
| 05/05:30am | 10.8 | 10.7 | 9.6 | 92 | 0.6 | CALM | 0 | 0 | 0 | 0 | - | - | 6.6 |
| 05/05:00am | 11.7 | 11.6 | 9.4 | 86 | 1.2 | CALM | 0 | 4 | 0 | 2 | - | - | 6.6 |
| 05/04:30am | 12.7 | 11.6 | 10.1 | 84 | 1.3 | SW | 6 | 9 | 3 | 5 | - | - | 6.6 |
| 05/04:00am | 13.4 | 12.7 | 10.2 | 81 | 1.7 | WSW | 4 | 6 | 2 | 3 | - | - | 6.6 |
| 05/03:30am | 13.2 | 13.4 | 10.7 | 85 | 1.3 | CALM | 0 | 0 | 0 | 0 | - | - | 6.6 |
| 05/03:00am | 14.3 | 13.2 | 10.7 | 79 | 1.9 | SW | 7 | 9 | 4 | 5 | - | - | 6.6 |
| 05/02:30am | 14.8 | 14.0 | 11.0 | 78 | 2.0 | WSW | 6 | 7 | 3 | 4 | - | - | 6.6 |
| 05/02:00am | 15.3 | 14.3 | 10.9 | 75 | 2.3 | SW | 7 | 11 | 4 | 6 | - | - | 6.6 |
| 05/01:30am | 15.5 | 14.9 | 12.3 | 81 | 1.8 | SSW | 7 | 11 | 4 | 6 | - | - | 6.6 |
| 05/01:00am | 16.4 | 16.6 | 13.1 | 81 | 1.8 | SW | 4 | 7 | 2 | 4 | - | - | 6.6 |
| 05/12:30am | 16.7 | 16.5 | 13.6 | 82 | 1.8 | SSW | 7 | 11 | 4 | 6 | - | - | 6.6 |
| 05/12:00am | 17.1 | 16.7 | 14.0 | 82 | 1.8 | SW | 9 | 13 | 5 | 7 | - | - | 6.6 |
| Date/Time EST |
Temp °C |
App Temp °C |
Dew Point °C |
Rel Hum % |
Delta-T °C |
Wind | Press QNH hPa |
Press MSL hPa |
Rain since 9am mm |
||||
|---|---|---|---|---|---|---|---|---|---|---|---|---|---|
| Dir | Spd km/h |
Gust km/h |
Spd kts |
Gust kts |
|||||||||
| 04/11:30pm | 17.0 | 17.1 | 15.5 | 91 | 0.9 | SSW | 9 | 15 | 5 | 8 | - | - | 6.6 |
| 04/11:00pm | 17.2 | 17.8 | 15.7 | 91 | 0.9 | SW | 7 | 11 | 4 | 6 | - | - | 6.4 |
| 04/10:30pm | 17.3 | 17.9 | 15.8 | 91 | 0.9 | SW | 7 | 13 | 4 | 7 | - | - | 6.4 |
| 04/10:00pm | 17.2 | 17.5 | 15.0 | 87 | 1.3 | SW | 7 | 13 | 4 | 7 | - | - | 6.4 |
| 04/09:30pm | 17.6 | 17.6 | 14.3 | 81 | 1.9 | WSW | 7 | 13 | 4 | 7 | - | - | 6.4 |
| 04/09:00pm | 18.6 | 18.8 | 14.1 | 75 | 2.6 | N | 6 | 15 | 3 | 8 | - | - | 6.4 |
| 04/08:30pm | 18.7 | 19.0 | 14.4 | 76 | 2.5 | NNW | 6 | 11 | 3 | 6 | - | - | 6.4 |
| 04/08:00pm | 19.0 | 19.5 | 14.9 | 77 | 2.4 | NNW | 6 | 9 | 3 | 5 | - | - | 6.4 |
| 04/07:30pm | 18.9 | 19.8 | 15.0 | 78 | 2.3 | N | 4 | 7 | 2 | 4 | - | - | 6.4 |
| 04/07:00pm | 19.3 | 20.2 | 15.2 | 77 | 2.4 | NNW | 4 | 7 | 2 | 4 | - | - | 6.4 |
| 04/06:30pm | 19.2 | 19.5 | 15.1 | 77 | 2.4 | N | 7 | 13 | 4 | 7 | - | - | 6.4 |
| 04/06:00pm | 19.0 | 19.6 | 15.3 | 79 | 2.2 | N | 6 | 11 | 3 | 6 | - | - | 6.4 |
| 04/05:30pm | 19.1 | 19.7 | 15.2 | 78 | 2.3 | N | 6 | 13 | 3 | 7 | - | - | 6.4 |
| 04/05:00pm | 19.4 | 19.4 | 15.3 | 77 | 2.4 | N | 9 | 15 | 5 | 8 | - | - | 6.4 |
| 04/04:30pm | 19.5 | 19.0 | 15.0 | 75 | 2.6 | N | 11 | 22 | 6 | 12 | - | - | 6.4 |
| 04/04:00pm | 19.9 | 20.5 | 15.3 | 75 | 2.7 | N | 6 | 15 | 3 | 8 | - | - | 6.4 |
| 04/03:30pm | 19.3 | 19.6 | 15.0 | 76 | 2.5 | N | 7 | 15 | 4 | 8 | - | - | 6.4 |
| 04/03:00pm | 19.3 | 19.2 | 15.0 | 76 | 2.5 | NNW | 9 | 19 | 5 | 10 | - | - | 6.4 |
| 04/02:30pm | 19.4 | 19.7 | 15.9 | 80 | 2.1 | N | 9 | 19 | 5 | 10 | - | - | 6.4 |
| 04/02:00pm | 19.0 | 19.7 | 16.0 | 83 | 1.8 | N | 7 | 13 | 4 | 7 | - | - | 6.4 |
| 04/01:30pm | 18.8 | 20.2 | 17.8 | 94 | 0.6 | N | 7 | 15 | 4 | 8 | - | - | 6.4 |
| 04/01:00pm | 17.0 | 18.2 | 16.8 | 99 | 0.1 | NNE | 6 | 11 | 3 | 6 | - | - | 6.4 |
| 04/12:30pm | 16.6 | 16.7 | 16.6 | 100 | 0.0 | NNE | 11 | 17 | 6 | 9 | - | - | 6.4 |
| 04/12:00pm | 16.7 | 17.6 | 16.7 | 100 | 0.0 | NE | 7 | 9 | 4 | 5 | - | - | 6.2 |
| 04/11:30am | 16.9 | 18.5 | 16.9 | 100 | 0.0 | NE | 4 | 9 | 2 | 5 | - | - | 5.2 |
| 04/11:00am | 17.1 | 19.5 | 17.1 | 100 | 0.0 | CALM | 0 | 6 | 0 | 3 | - | - | 3.6 |
| 04/10:30am | 16.7 | 19.0 | 16.7 | 100 | 0.0 | CALM | 0 | 2 | 0 | 1 | - | - | 3.0 |
| 04/10:00am | 16.3 | 17.6 | 16.1 | 99 | 0.1 | ESE | 4 | 6 | 2 | 3 | - | - | 2.4 |
| 04/09:30am | 15.9 | 17.0 | 15.6 | 98 | 0.2 | E | 4 | 6 | 2 | 3 | - | - | 1.4 |
| 04/09:00am | 16.0 | 16.7 | 15.5 | 97 | 0.3 | WNW | 6 | 13 | 3 | 7 | - | - | 0.4 |
| 04/08:30am | 16.1 | 18.1 | 16.1 | 100 | 0.0 | CALM | 0 | 4 | 0 | 2 | - | - | 0.2 |
| 04/08:00am | 15.8 | 17.7 | 15.8 | 100 | 0.0 | CALM | 0 | 0 | 0 | 0 | - | - | 0.2 |
| 04/07:30am | 15.7 | 17.6 | 15.7 | 100 | 0.0 | CALM | 0 | 0 | 0 | 0 | - | - | 0.2 |
| 04/07:00am | 15.3 | 17.0 | 15.3 | 100 | 0.0 | CALM | 0 | 2 | 0 | 1 | - | - | 0.2 |
| 04/06:30am | 15.3 | 17.0 | 15.3 | 100 | 0.0 | CALM | 0 | 0 | 0 | 0 | - | - | 0.0 |
| 04/06:00am | 15.3 | 17.0 | 15.3 | 100 | 0.0 | CALM | 0 | 0 | 0 | 0 | - | - | 0.0 |
| 04/05:30am | 15.4 | 17.2 | 15.4 | 100 | 0.0 | CALM | 0 | 0 | 0 | 0 | - | - | 0.0 |
| 04/05:00am | 15.4 | 17.2 | 15.4 | 100 | 0.0 | CALM | 0 | 0 | 0 | 0 | - | - | 0.0 |
| 04/04:30am | 15.4 | 17.2 | 15.4 | 100 | 0.0 | CALM | 0 | 0 | 0 | 0 | - | - | 0.0 |
| 04/04:00am | 15.3 | 17.0 | 15.3 | 100 | 0.0 | CALM | 0 | 0 | 0 | 0 | - | - | 0.0 |
| 04/03:30am | 15.5 | 17.3 | 15.5 | 100 | 0.0 | CALM | 0 | 0 | 0 | 0 | - | - | 0.0 |
| 04/03:00am | 14.8 | 16.3 | 14.6 | 99 | 0.1 | CALM | 0 | 0 | 0 | 0 | - | - | 0.0 |
| 04/02:30am | 14.9 | 16.4 | 14.6 | 98 | 0.2 | CALM | 0 | 0 | 0 | 0 | - | - | 0.0 |
| 04/02:00am | 15.3 | 16.9 | 14.8 | 97 | 0.3 | CALM | 0 | 0 | 0 | 0 | - | - | 0.0 |
| 04/01:30am | 15.5 | 17.1 | 15.0 | 97 | 0.3 | CALM | 0 | 0 | 0 | 0 | - | - | 0.0 |
| 04/01:00am | 15.9 | 17.6 | 15.3 | 96 | 0.3 | CALM | 0 | 0 | 0 | 0 | - | - | 0.0 |
| 04/12:30am | 16.3 | 17.5 | 15.8 | 97 | 0.3 | ENE | 4 | 6 | 2 | 3 | - | - | 0.0 |
| 04/12:00am | 16.2 | 17.8 | 15.9 | 98 | 0.2 | E | 2 | 4 | 1 | 2 | - | - | 0.0 |
| Date/Time EST |
Temp °C |
App Temp °C |
Dew Point °C |
Rel Hum % |
Delta-T °C |
Wind | Press QNH hPa |
Press MSL hPa |
Rain since 9am mm |
||||
|---|---|---|---|---|---|---|---|---|---|---|---|---|---|
| Dir | Spd km/h |
Gust km/h |
Spd kts |
Gust kts |
|||||||||
| 03/11:30pm | 15.5 | 17.1 | 14.9 | 96 | 0.3 | CALM | 0 | 0 | 0 | 0 | - | - | 0.0 |
| 03/11:00pm | 15.8 | 17.4 | 15.0 | 95 | 0.5 | CALM | 0 | 0 | 0 | 0 | - | - | 0.0 |
| 03/10:30pm | 16.3 | 18.0 | 15.3 | 94 | 0.6 | CALM | 0 | 0 | 0 | 0 | - | - | 0.0 |
| 03/10:00pm | 16.2 | 18.0 | 15.4 | 95 | 0.5 | CALM | 0 | 0 | 0 | 0 | - | - | 0.0 |
| 03/09:30pm | 16.0 | 17.6 | 14.9 | 93 | 0.6 | CALM | 0 | 0 | 0 | 0 | - | - | 0.0 |
| 03/09:00pm | 16.3 | 17.9 | 15.0 | 92 | 0.8 | CALM | 0 | 0 | 0 | 0 | - | - | 0.0 |
| 03/08:30pm | 16.6 | 18.2 | 14.8 | 89 | 1.0 | CALM | 0 | 0 | 0 | 0 | - | - | 0.0 |
Latest Capital City Observations: Canberra | Sydney | Melbourne | Brisbane | Adelaide | Perth | Hobart | Darwin
Other formats
Comma delimited format used in spreadsheet applications
http://www.bom.gov.au/fwo/IDN60901/IDN60901.94760.axf
JavaScript Object Notation format (JSON) in row-major order
http://www.bom.gov.au/fwo/IDN60901/IDN60901.94760.json
Data quality
Most of these data are generated automatically and are frequently updated. Quality checks on data are not normally performed. It is possible for incorrect values to appear. Refer to information at About Latest Weather Observations and please check the disclaimer before using these data.
